Fresnal Canyon, Arizona
Current Conditions -  °F | °C
As of 5:55 PM on Saturday 22 Nov 2014 (Local Time) from KAVQ Reporting Station
Clear Clear  
Wind Chill: 17°   Ceiling: Unl
Heat Index: 17°   Visibility: 10mi
Dew Point: -4°   Wind: 5mph
Humidity: 24%   Direction: 360°N
Pressure: 29.99"   Gusts: NA
Location:  32.0925°N, 112.129°W
Report Text: KAVQ 230055Z AUTO 36004KT 10SM CLR 17/M03 A2999 RMK AO2 T01731035
Loading
Personal Weather Stations






























Interactive Weather Map New forecast layout! Learn more

10-Day Weather Forecast

Advertisements
Track Severe Weather on mobile